createdAt,value
2022-09-16T00:00:31.843Z,14.76
2022-09-16T00:02:58.776Z,14.84
2022-09-16T00:05:25.991Z,14.90
2022-09-16T00:07:53.729Z,14.92
2022-09-16T00:10:21.497Z,14.89
2022-09-16T00:12:49.266Z,14.80
2022-09-16T00:15:17.030Z,14.95
2022-09-16T00:17:43.625Z,14.86
2022-09-16T00:20:11.003Z,14.95
2022-09-16T00:22:37.686Z,14.91
2022-09-16T00:25:04.620Z,14.94
2022-09-16T00:27:33.477Z,14.93
2022-09-16T00:30:00.176Z,14.89
2022-09-16T00:32:26.898Z,14.82
2022-09-16T00:34:53.546Z,14.97
2022-09-16T00:37:20.236Z,15.13
2022-09-16T00:39:50.550Z,15.10
2022-09-16T00:42:18.571Z,15.23
2022-09-16T00:44:55.991Z,15.26
2022-09-16T00:47:31.490Z,15.28
2022-09-16T00:50:05.523Z,15.31
2022-09-16T00:52:32.570Z,15.28
2022-09-16T00:55:02.776Z,15.26
2022-09-16T00:57:29.720Z,15.41
2022-09-16T00:59:57.345Z,15.43
2022-09-16T01:02:24.848Z,15.49
2022-09-16T01:05:01.500Z,15.50
2022-09-16T01:07:36.459Z,15.53
2022-09-16T01:10:03.467Z,15.53
2022-09-16T01:12:32.575Z,15.59
2022-09-16T01:15:01.825Z,15.59
2022-09-16T01:17:54.722Z,15.61
2022-09-16T01:20:42.423Z,15.61
2022-09-16T01:23:46.537Z,15.55
2022-09-16T01:26:47.498Z,15.42
2022-09-16T01:29:46.581Z,15.32
2022-09-16T01:32:45.400Z,15.28
2022-09-16T01:35:22.257Z,15.32
2022-09-16T01:38:22.821Z,15.28
2022-09-16T01:41:02.035Z,15.28
2022-09-16T01:43:38.433Z,15.35
2022-09-16T01:46:12.433Z,15.35
2022-09-16T01:48:53.018Z,15.29
2022-09-16T01:51:33.667Z,15.14
2022-09-16T01:54:13.483Z,15.10
2022-09-16T01:56:46.449Z,14.96
2022-09-16T01:59:19.142Z,14.84
2022-09-16T02:01:57.139Z,14.73
2022-09-16T02:04:40.615Z,14.66
2022-09-16T02:07:11.567Z,14.56
2022-09-16T02:09:43.489Z,14.23
2022-09-16T02:12:14.718Z,14.51
2022-09-16T02:14:44.643Z,14.50
2022-09-16T02:17:15.363Z,14.56
2022-09-16T02:19:44.551Z,14.53
2022-09-16T02:22:15.967Z,14.50
2022-09-16T02:24:46.107Z,14.42
2022-09-16T02:27:21.557Z,14.56
2022-09-16T02:29:56.448Z,14.60
2022-09-16T02:32:26.691Z,14.62
2022-09-16T02:34:54.966Z,14.44
2022-09-16T02:37:37.382Z,14.39
2022-09-16T02:40:11.457Z,14.31
2022-09-16T02:42:38.209Z,14.24
2022-09-16T02:45:05.380Z,14.32
2022-09-16T02:47:40.709Z,14.30
2022-09-16T02:50:21.255Z,14.25
2022-09-16T02:52:53.552Z,14.32
2022-09-16T02:55:56.547Z,14.18
2022-09-16T02:58:23.467Z,14.40
2022-09-16T03:00:53.760Z,14.45
2022-09-16T03:03:20.788Z,14.52
2022-09-16T03:06:05.827Z,14.53
2022-09-16T03:08:34.318Z,14.62
2022-09-16T03:11:31.675Z,14.74
2022-09-16T03:14:16.872Z,14.78
2022-09-16T03:17:11.304Z,14.73
2022-09-16T03:19:37.841Z,14.79
2022-09-16T03:22:26.826Z,14.87
2022-09-16T03:25:02.433Z,14.96
2022-09-16T03:27:43.184Z,14.92
2022-09-16T03:30:11.871Z,15.07
2022-09-16T03:32:43.500Z,15.00
2022-09-16T03:35:28.524Z,14.99
2022-09-16T03:37:58.420Z,14.89
2022-09-16T03:40:29.558Z,15.03
2022-09-16T03:42:57.758Z,14.81
2022-09-16T03:45:24.452Z,14.47
2022-09-16T03:47:52.849Z,14.55
2022-09-16T03:50:21.158Z,15.04
2022-09-16T03:52:47.781Z,14.79
2022-09-16T03:55:27.558Z,14.84
2022-09-16T03:57:54.715Z,14.99
2022-09-16T04:00:22.997Z,14.72
2022-09-16T04:02:49.773Z,14.88
2022-09-16T04:05:16.863Z,14.73
2022-09-16T04:07:43.404Z,14.85
2022-09-16T04:10:12.222Z,14.91
2022-09-16T04:12:38.883Z,14.81
2022-09-16T04:15:06.031Z,14.49
2022-09-16T04:17:33.424Z,14.71
2022-09-16T04:20:00.202Z,14.66
2022-09-16T04:22:31.497Z,15.03
2022-09-16T04:24:58.344Z,14.61
2022-09-16T04:27:25.758Z,14.83
2022-09-16T04:29:52.396Z,14.86
2022-09-16T04:32:19.024Z,14.96
2022-09-16T04:34:45.776Z,14.97
2022-09-16T04:37:12.441Z,15.07
2022-09-16T04:39:39.037Z,15.12
2022-09-16T04:42:06.895Z,15.10
2022-09-16T04:44:33.540Z,15.10
2022-09-16T04:47:00.511Z,15.12
2022-09-16T04:49:30.314Z,15.05
2022-09-16T04:51:57.438Z,14.95
2022-09-16T04:54:24.018Z,14.97
2022-09-16T04:56:50.586Z,14.64
2022-09-16T04:59:17.155Z,14.87
2022-09-16T05:01:43.940Z,14.85
2022-09-16T05:04:10.728Z,14.72
2022-09-16T05:06:41.016Z,14.72
2022-09-16T05:09:09.735Z,14.77
2022-09-16T05:11:38.874Z,15.02
2022-09-16T05:14:12.971Z,15.13
2022-09-16T05:16:39.677Z,15.17
2022-09-16T05:19:06.303Z,15.32
2022-09-16T05:21:35.616Z,15.48
2022-09-16T05:24:05.151Z,15.67
2022-09-16T05:26:33.130Z,15.77
2022-09-16T05:29:02.256Z,15.78
2022-09-16T05:31:30.963Z,15.85
2022-09-16T05:34:06.548Z,15.78
2022-09-16T05:36:36.284Z,15.48
2022-09-16T05:41:54.226Z,15.70
2022-09-16T05:44:20.987Z,15.33
2022-09-16T05:46:47.551Z,15.16
2022-09-16T05:49:14.349Z,15.03
2022-09-16T05:51:44.116Z,14.91
2022-09-16T05:54:10.696Z,14.72
2022-09-16T05:56:37.352Z,14.79
2022-09-16T05:59:04.488Z,14.77
2022-09-16T06:01:34.870Z,14.77
2022-09-16T06:04:04.310Z,14.57
2022-09-16T06:06:36.181Z,14.70
2022-09-16T06:09:10.673Z,14.72
2022-09-16T06:11:45.649Z,14.72
2022-09-16T06:14:13.193Z,14.67
2022-09-16T06:16:40.520Z,14.70
2022-09-16T06:19:10.610Z,14.84
2022-09-16T06:22:00.335Z,14.60
2022-09-16T06:24:27.140Z,15.15
2022-09-16T06:26:53.701Z,15.30
2022-09-16T06:29:20.438Z,15.38
2022-09-16T06:31:47.019Z,15.48
2022-09-16T06:34:18.532Z,15.42
2022-09-16T06:36:45.813Z,15.62
2022-09-16T06:39:14.231Z,15.70
2022-09-16T06:41:40.930Z,15.37
2022-09-16T06:44:10.329Z,15.41
2022-09-16T06:46:37.547Z,15.42
2022-09-16T06:49:06.017Z,15.35
2022-09-16T06:51:34.542Z,15.28
2022-09-16T06:54:06.082Z,15.19
2022-09-16T06:56:35.940Z,15.18
2022-09-16T06:59:02.673Z,15.07
2022-09-16T07:01:30.876Z,15.01
2022-09-16T07:03:58.553Z,14.98
2022-09-16T07:06:49.592Z,14.93
2022-09-16T07:09:16.273Z,14.97
2022-09-16T07:11:42.930Z,15.04
2022-09-16T07:14:09.887Z,15.03
2022-09-16T07:16:36.886Z,15.26
2022-09-16T07:19:04.382Z,15.36
2022-09-16T07:21:31.415Z,15.33
2022-09-16T07:24:01.201Z,15.45
2022-09-16T07:26:33.453Z,15.45
2022-09-16T07:29:03.493Z,15.43
2022-09-16T07:31:33.019Z,15.42
2022-09-16T07:34:04.274Z,15.42
2022-09-16T07:36:34.404Z,15.47
2022-09-16T07:39:01.440Z,15.90
2022-09-16T07:42:05.833Z,16.11
2022-09-16T07:44:32.942Z,16.13
2022-09-16T07:46:59.571Z,16.01
2022-09-16T07:49:26.185Z,15.97
2022-09-16T07:51:52.800Z,15.94
2022-09-16T07:54:20.043Z,16.01
2022-09-16T07:56:47.324Z,16.15
2022-09-16T07:59:18.353Z,15.89
2022-09-16T08:01:46.390Z,15.72
2022-09-16T08:04:13.700Z,15.76
2022-09-16T08:06:48.940Z,15.87
2022-09-16T08:09:37.315Z,15.69
2022-09-16T08:12:04.639Z,15.74
2022-09-16T08:14:31.468Z,15.70
2022-09-16T08:16:58.080Z,15.82
2022-09-16T08:19:24.998Z,15.86
2022-09-16T08:21:52.648Z,15.73
2022-09-16T08:24:19.307Z,15.77
2022-09-16T08:26:45.979Z,15.48
2022-09-16T08:29:12.952Z,15.90
2022-09-16T08:31:39.861Z,16.10
2022-09-16T08:34:06.718Z,16.12
2022-09-16T08:36:33.845Z,16.24
2022-09-16T08:39:25.399Z,16.35
2022-09-16T08:42:06.626Z,16.18
2022-09-16T08:44:50.500Z,16.12
2022-09-16T08:47:29.134Z,16.10
2022-09-16T08:49:58.662Z,16.35
2022-09-16T08:52:30.060Z,16.42
2022-09-16T08:55:37.007Z,16.17
2022-09-16T08:58:10.252Z,16.22
2022-09-16T09:00:38.402Z,16.38
2022-09-16T09:03:36.035Z,16.34
2022-09-16T09:06:09.264Z,16.10
2022-09-16T09:08:44.788Z,15.91
2022-09-16T09:11:45.179Z,15.92
2022-09-16T09:14:36.442Z,16.09
2022-09-16T09:17:27.315Z,16.14
2022-09-16T09:20:09.593Z,16.42
2022-09-16T09:23:08.015Z,16.53
2022-09-16T09:25:43.041Z,16.34
2022-09-16T09:28:38.472Z,16.14
2022-09-16T09:31:43.102Z,16.57
2022-09-16T09:34:31.491Z,16.37
2022-09-16T09:37:18.342Z,16.44
2022-09-16T09:39:56.598Z,16.71
2022-09-16T09:42:39.643Z,16.60
2022-09-16T09:45:16.969Z,16.62
2022-09-16T09:47:56.789Z,16.63
2022-09-16T09:50:36.283Z,16.62
2022-09-16T09:53:28.623Z,16.58
2022-09-16T09:56:04.439Z,16.41
2022-09-16T09:59:19.992Z,16.22
2022-09-16T10:01:46.605Z,16.11
2022-09-16T10:04:16.121Z,16.14
2022-09-16T10:06:45.864Z,16.05
2022-09-16T10:09:14.984Z,15.84
2022-09-16T10:11:50.772Z,15.83
2022-09-16T10:14:33.778Z,15.85
2022-09-16T10:17:03.002Z,15.90
2022-09-16T10:19:34.941Z,15.96
2022-09-16T10:22:32.349Z,16.09
2022-09-16T10:25:07.867Z,16.03
2022-09-16T10:27:37.476Z,15.93
2022-09-16T10:30:15.252Z,16.11
2022-09-16T10:33:01.902Z,15.93
2022-09-16T10:35:31.413Z,16.30
2022-09-16T10:38:05.694Z,16.64
2022-09-16T10:40:33.809Z,17.02
2022-09-16T10:43:07.137Z,17.35
2022-09-16T10:45:36.941Z,17.26
2022-09-16T10:48:14.777Z,16.56
2022-09-16T10:51:02.208Z,16.63
2022-09-16T10:53:32.195Z,16.66
2022-09-16T10:56:01.651Z,16.63
2022-09-16T10:58:28.481Z,16.77
2022-09-16T11:00:58.264Z,16.94
2022-09-16T11:04:00.346Z,16.79
2022-09-16T11:06:53.025Z,16.75
2022-09-16T11:09:34.310Z,16.90
2022-09-16T11:12:14.651Z,16.99
2022-09-16T11:15:09.441Z,16.78
2022-09-16T11:17:52.604Z,17.17
2022-09-16T11:20:45.827Z,17.17
2022-09-16T11:23:18.436Z,17.22
2022-09-16T11:25:56.936Z,17.12
2022-09-16T11:28:53.723Z,17.30
2022-09-16T11:31:52.714Z,17.50
2022-09-16T11:34:25.213Z,17.35
2022-09-16T11:36:58.129Z,17.14
2022-09-16T11:39:52.669Z,17.12
2022-09-16T11:42:33.953Z,16.79
2022-09-16T11:45:56.837Z,17.31
2022-09-16T11:48:26.118Z,17.95
2022-09-16T11:51:03.100Z,18.14
2022-09-16T11:53:48.087Z,18.21
2022-09-16T11:56:27.713Z,17.79
2022-09-16T11:59:01.722Z,17.66
2022-09-16T12:01:32.231Z,18.10
2022-09-16T12:04:10.341Z,18.87
2022-09-16T12:06:47.181Z,19.74
2022-09-16T12:09:51.901Z,20.38
2022-09-16T12:12:22.259Z,20.39
2022-09-16T12:14:56.011Z,20.99
2022-09-16T12:17:28.006Z,20.39
2022-09-16T12:20:03.618Z,20.60
2022-09-16T12:22:36.336Z,21.04
2022-09-16T12:25:22.451Z,21.17
2022-09-16T12:28:15.846Z,20.72
2022-09-16T12:30:47.194Z,19.97
2022-09-16T12:33:20.845Z,20.02
2022-09-16T12:35:59.280Z,19.58
2022-09-16T12:38:26.147Z,20.00
2022-09-16T12:41:17.793Z,20.31
2022-09-16T12:44:33.414Z,21.03
2022-09-16T12:47:09.619Z,22.20
2022-09-16T12:50:05.058Z,21.29
2022-09-16T12:53:04.729Z,20.62
2022-09-16T12:55:46.708Z,21.37
2022-09-16T12:59:06.999Z,21.88
2022-09-16T13:01:41.615Z,21.65
2022-09-16T13:04:22.520Z,20.61
2022-09-16T13:06:52.659Z,20.02
2022-09-16T13:09:30.981Z,19.77
2022-09-16T13:12:36.654Z,19.56
2022-09-16T13:14:52.078Z,18.75
2022-09-16T13:17:37.783Z,18.72
2022-09-16T13:20:17.868Z,18.62
2022-09-16T13:22:53.440Z,18.52
2022-09-16T13:25:25.068Z,18.27
2022-09-16T13:27:57.507Z,19.16
2022-09-16T13:30:30.264Z,19.98
2022-09-16T13:33:03.205Z,20.34
2022-09-16T13:35:39.981Z,19.60
2022-09-16T13:38:18.872Z,20.27
2022-09-16T13:40:57.353Z,20.66
2022-09-16T13:43:42.183Z,20.50
2022-09-16T13:46:18.543Z,20.16
2022-09-16T13:49:03.332Z,21.28
2022-09-16T13:51:36.076Z,20.02
2022-09-16T13:54:04.287Z,19.91
2022-09-16T13:56:48.927Z,19.30
2022-09-16T13:59:20.705Z,20.07
2022-09-16T14:02:09.279Z,19.64
2022-09-16T14:04:44.853Z,20.04
2022-09-16T14:07:30.085Z,20.48
2022-09-16T14:10:06.336Z,20.37
2022-09-16T14:12:50.040Z,20.49
2022-09-16T14:15:18.662Z,20.78
2022-09-16T14:17:51.526Z,20.50
2022-09-16T14:20:21.865Z,20.89
2022-09-16T14:22:49.004Z,20.58
2022-09-16T14:25:36.388Z,20.24
2022-09-16T14:28:23.121Z,20.41
2022-09-16T14:30:58.460Z,20.36
2022-09-16T14:33:33.793Z,20.00
2022-09-16T14:36:01.612Z,19.75
2022-09-16T14:39:03.202Z,20.04
2022-09-16T14:41:41.262Z,19.72
2022-09-16T14:44:20.004Z,19.66
2022-09-16T14:46:52.797Z,19.30
2022-09-16T14:49:24.467Z,19.04
2022-09-16T14:51:55.654Z,18.79
2022-09-16T14:54:24.275Z,19.10
2022-09-16T14:57:22.715Z,18.99
2022-09-16T14:59:52.195Z,18.95
2022-09-16T15:02:44.696Z,18.66
2022-09-16T15:05:34.648Z,18.24
2022-09-16T15:08:14.279Z,18.09
2022-09-16T15:10:51.932Z,17.96
2022-09-16T15:13:22.719Z,17.95
2022-09-16T15:15:52.461Z,17.94
2022-09-16T15:18:26.882Z,17.87
2022-09-16T15:21:03.108Z,17.74
2022-09-16T15:23:30.839Z,18.07
2022-09-16T15:26:06.391Z,18.30
2022-09-16T15:28:33.339Z,18.44
2022-09-16T15:31:00.173Z,18.22
2022-09-16T15:33:34.636Z,18.11
2022-09-16T15:36:02.292Z,18.07
2022-09-16T15:38:29.261Z,17.93
2022-09-16T15:41:03.902Z,17.97
2022-09-16T15:43:53.647Z,18.06
2022-09-16T15:46:24.329Z,18.02
2022-09-16T15:48:55.665Z,17.82
2022-09-16T15:51:39.326Z,17.69
2022-09-16T15:54:23.901Z,17.64
2022-09-16T15:56:50.545Z,17.62
2022-09-16T15:59:42.141Z,17.46
2022-09-16T16:02:33.295Z,17.25
2022-09-16T16:05:14.130Z,16.93
2022-09-16T16:07:44.453Z,16.82
2022-09-16T16:10:23.761Z,16.59
2022-09-16T16:12:52.032Z,16.62
2022-09-16T16:15:21.956Z,16.30
2022-09-16T16:17:49.680Z,16.33
2022-09-16T16:20:17.866Z,16.35
2022-09-16T16:22:45.190Z,16.36
2022-09-16T16:25:13.168Z,16.35
2022-09-16T16:27:40.548Z,16.18
2022-09-16T16:30:08.443Z,16.04
2022-09-16T16:32:35.542Z,15.93
2022-09-16T16:35:02.236Z,15.74
2022-09-16T16:37:45.369Z,15.45
2022-09-16T16:40:12.560Z,15.55
2022-09-16T16:42:40.227Z,15.56
2022-09-16T16:45:14.498Z,15.08
2022-09-16T16:47:42.122Z,15.26
2022-09-16T16:50:11.887Z,15.07
2022-09-16T16:52:39.187Z,15.17
2022-09-16T16:55:06.738Z,15.18
2022-09-16T16:57:33.331Z,15.32
2022-09-16T16:59:59.953Z,15.30
2022-09-16T17:02:26.670Z,14.79
2022-09-16T17:04:53.307Z,14.95
2022-09-16T17:07:28.139Z,15.03
2022-09-16T17:09:58.559Z,14.99
2022-09-16T17:12:26.063Z,15.06
2022-09-16T17:14:52.737Z,14.97
2022-09-16T17:17:19.716Z,14.71
2022-09-16T17:19:46.345Z,14.56
2022-09-16T17:22:13.104Z,14.77
2022-09-16T17:24:39.870Z,14.50
2022-09-16T17:27:27.579Z,14.69
2022-09-16T17:29:54.304Z,14.43
2022-09-16T17:32:21.063Z,14.52
2022-09-16T17:34:47.794Z,14.52
2022-09-16T17:37:15.150Z,14.34
2022-09-16T17:39:42.194Z,14.25
2022-09-16T17:42:08.872Z,14.22
2022-09-16T17:45:06.333Z,14.32
2022-09-16T17:47:35.667Z,14.43
2022-09-16T17:50:05.118Z,14.45
2022-09-16T17:52:31.784Z,14.66
2022-09-16T17:54:59.096Z,14.79
2022-09-16T17:57:32.529Z,14.58
2022-09-16T17:59:59.893Z,14.72
2022-09-16T18:02:27.118Z,14.55
2022-09-16T18:04:53.835Z,14.27
2022-09-16T18:07:20.752Z,14.24
2022-09-16T18:09:47.539Z,13.88
2022-09-16T18:12:14.488Z,13.83
2022-09-16T18:14:41.130Z,13.86
2022-09-16T18:17:07.901Z,13.89
2022-09-16T18:19:34.787Z,13.81
2022-09-16T18:22:01.492Z,13.88
2022-09-16T18:24:28.329Z,13.92
2022-09-16T18:27:07.248Z,13.95
2022-09-16T18:29:34.052Z,13.92
2022-09-16T18:32:00.833Z,13.84
2022-09-16T18:34:32.706Z,13.79
2022-09-16T18:37:01.394Z,13.83
2022-09-16T18:39:28.065Z,13.95
2022-09-16T18:41:55.933Z,13.85
2022-09-16T18:44:25.996Z,14.05
2022-09-16T18:46:53.383Z,13.52
2022-09-16T18:49:29.011Z,13.85
2022-09-16T18:51:56.233Z,13.57
2022-09-16T18:54:27.949Z,13.55
2022-09-16T18:57:00.195Z,13.64
2022-09-16T18:59:29.637Z,13.65
2022-09-16T19:01:59.911Z,13.62
2022-09-16T19:04:28.955Z,13.56
2022-09-16T19:06:59.251Z,13.54
2022-09-16T19:09:26.350Z,13.12
2022-09-16T19:11:54.932Z,13.54
2022-09-16T19:14:24.559Z,13.62
2022-09-16T19:16:52.228Z,13.63
2022-09-16T19:19:19.706Z,13.65
2022-09-16T19:21:47.301Z,13.66
2022-09-16T19:24:23.117Z,13.88
2022-09-16T19:26:52.814Z,13.96
2022-09-16T19:29:20.669Z,13.72
2022-09-16T19:31:49.492Z,13.99
2022-09-16T19:34:16.543Z,13.70
2022-09-16T19:36:43.989Z,13.56
2022-09-16T19:39:12.315Z,13.08
2022-09-16T19:41:40.240Z,13.22
2022-09-16T19:44:14.195Z,13.27
2022-09-16T19:46:42.807Z,13.24
2022-09-16T19:49:14.866Z,13.04
2022-09-16T19:51:42.154Z,13.13
2022-09-16T19:54:08.963Z,13.02
2022-09-16T19:56:35.711Z,12.90
2022-09-16T19:59:03.013Z,12.65
2022-09-16T20:01:32.949Z,12.71
2022-09-16T20:04:00.763Z,12.55
2022-09-16T20:06:31.716Z,12.75
2022-09-16T20:09:00.955Z,12.38
2022-09-16T20:11:30.035Z,12.16
2022-09-16T20:14:01.751Z,12.55
2022-09-16T20:16:37.546Z,12.51
2022-09-16T20:19:06.243Z,12.27
2022-09-16T20:21:35.112Z,12.28
2022-09-16T20:24:05.675Z,12.33
2022-09-16T20:26:38.658Z,12.28
2022-09-16T20:29:05.411Z,12.11
2022-09-16T20:31:34.551Z,12.35
2022-09-16T20:34:01.981Z,12.37
2022-09-16T20:36:30.925Z,12.32
2022-09-16T20:39:00.924Z,12.28
2022-09-16T20:41:29.965Z,12.02
2022-09-16T20:43:56.893Z,12.17
2022-09-16T20:46:26.173Z,12.21
2022-09-16T20:48:55.669Z,12.20
2022-09-16T20:51:25.734Z,12.17
2022-09-16T20:53:57.963Z,12.22
2022-09-16T20:56:25.985Z,12.20
2022-09-16T20:58:52.883Z,12.07
2022-09-16T21:01:26.818Z,12.17
2022-09-16T21:03:57.970Z,12.14
2022-09-16T21:06:26.396Z,12.11
2022-09-16T21:08:55.031Z,12.24
2022-09-16T21:11:22.136Z,12.18
2022-09-16T21:13:58.260Z,12.27
2022-09-16T21:16:26.825Z,12.23
2022-09-16T21:18:55.231Z,12.23
2022-09-16T21:21:24.466Z,11.86
2022-09-16T21:23:53.415Z,12.20
2022-09-16T21:26:23.788Z,12.23
2022-09-16T21:29:11.546Z,12.19
2022-09-16T21:31:40.877Z,11.83
2022-09-16T21:34:16.671Z,12.07
2022-09-16T21:36:44.485Z,11.95
2022-09-16T21:39:14.163Z,11.86
2022-09-16T21:41:41.667Z,12.07
2022-09-16T21:44:09.876Z,12.00
2022-09-16T21:46:42.861Z,11.92
2022-09-16T21:49:16.936Z,11.47
2022-09-16T21:51:51.011Z,11.87
2022-09-16T21:54:20.186Z,11.87
2022-09-16T21:56:48.808Z,11.81
2022-09-16T21:59:15.838Z,11.73
2022-09-16T22:01:42.419Z,11.41
2022-09-16T22:04:15.044Z,11.57
2022-09-16T22:06:42.792Z,11.72
2022-09-16T22:09:10.093Z,11.67
2022-09-16T22:11:39.441Z,11.60
2022-09-16T22:14:06.408Z,11.58
2022-09-16T22:16:48.576Z,11.55
2022-09-16T22:19:17.967Z,11.52
2022-09-16T22:21:47.119Z,11.50
2022-09-16T22:24:16.140Z,11.49
2022-09-16T22:26:43.485Z,11.46
2022-09-16T22:29:11.761Z,11.44
2022-09-16T22:31:40.498Z,11.43
2022-09-16T22:34:13.243Z,11.28
2022-09-16T22:36:39.935Z,11.00
2022-09-16T22:39:18.151Z,11.36
2022-09-16T22:41:44.928Z,11.29
2022-09-16T22:44:12.616Z,10.87
2022-09-16T22:46:45.073Z,10.90
2022-09-16T22:49:12.562Z,11.26
2022-09-16T22:51:39.927Z,11.28
2022-09-16T22:54:07.665Z,11.25
2022-09-16T22:56:34.678Z,11.25
2022-09-16T22:59:03.624Z,11.10
2022-09-16T23:01:36.859Z,11.22
2022-09-16T23:04:05.435Z,11.25
2022-09-16T23:06:33.668Z,11.21
2022-09-16T23:09:00.698Z,11.18
2022-09-16T23:11:30.150Z,11.12
2022-09-16T23:13:57.639Z,11.06
2022-09-16T23:16:30.078Z,11.10
2022-09-16T23:18:59.580Z,11.02
2022-09-16T23:21:26.770Z,11.06
2022-09-16T23:23:57.052Z,11.08
2022-09-16T23:26:26.881Z,10.98
2022-09-16T23:28:55.288Z,11.17
2022-09-16T23:31:24.737Z,11.24
2022-09-16T23:33:52.699Z,11.20
2022-09-16T23:36:20.220Z,10.48
2022-09-16T23:38:48.087Z,11.11
2022-09-16T23:41:38.387Z,11.16
2022-09-16T23:44:05.545Z,11.21
2022-09-16T23:46:32.485Z,11.01
2022-09-16T23:48:59.337Z,10.80
2022-09-16T23:51:28.648Z,10.88
2022-09-16T23:53:57.160Z,10.88
2022-09-16T23:56:25.626Z,10.96
2022-09-16T23:58:52.732Z,10.94
